Time;durP1;ratioP1;P1;durP2;ratioP2;P2;SDS_P1;SDS_P2;PMS_P1;PMS_P2;Temp;Humidity;BMP_temperature;BMP_pressure;BME280_temperature;BME280_humidity;BME280_pressure;Samples;Min_cycle;Max_cycle;Signal;HPM_P1;HPM_P2
2022/07/16 00:01:58;;;;;;;5.47;2.88;;;17.00;73.50;;;;;;4988112;28;20084;-85
2022/07/16 00:04:24;;;;;;;12.05;3.42;;;16.90;74.10;;;;;;4967198;28;20035;-86
2022/07/16 00:06:49;;;;;;;10.82;3.33;;;16.90;73.90;;;;;;4988859;28;20057;-86
2022/07/16 00:09:15;;;;;;;10.82;3.35;;;16.90;74.20;;;;;;4993412;28;20030;-85
2022/07/16 00:11:41;;;;;;;5.78;2.65;;;16.90;74.30;;;;;;4984571;28;20050;-86
2022/07/16 00:14:07;;;;;;;7.55;3.60;;;16.80;74.50;;;;;;4989779;28;20022;-86
2022/07/16 00:16:33;;;;;;;7.65;2.95;;;;;;;;;;4985619;28;20039;-85
2022/07/16 00:19:18;;;;;;;6.75;2.83;;;16.80;74.70;;;;;;4970374;28;20069;-85
2022/07/16 00:21:50;;;;;;;7.78;3.15;;;16.80;74.30;;;;;;4964073;28;20404;-86
2022/07/16 00:24:16;;;;;;;6.18;2.92;;;16.70;75.00;;;;;;4988091;28;20011;-87
2022/07/16 00:26:43;;;;;;;7.03;2.75;;;16.70;75.20;;;;;;4967594;28;20065;-85
2022/07/16 00:29:08;;;;;;;4.32;2.75;;;16.70;75.40;;;;;;4982482;28;20360;-85
2022/07/16 00:31:35;;;;;;;8.25;3.03;;;16.70;75.80;;;;;;4956940;28;20161;-85
2022/07/16 00:34:04;;;;;;;6.38;3.53;;;16.60;75.90;;;;;;4985724;28;20021;-85
2022/07/16 00:36:29;;;;;;;9.13;3.00;;;16.60;76.00;;;;;;4990984;28;20022;-85
2022/07/16 00:38:55;;;;;;;7.32;3.25;;;16.60;76.30;;;;;;4964825;28;20034;-88
2022/07/16 00:41:21;;;;;;;7.22;3.88;;;16.60;76.50;;;;;;4976767;28;20026;-84
2022/07/16 00:43:49;;;;;;;10.30;3.10;;;16.50;76.70;;;;;;4992403;28;20023;-84
2022/07/16 00:46:16;;;;;;;7.13;2.45;;;16.50;76.70;;;;;;4970436;28;20031;-83
2022/07/16 00:48:43;;;;;;;9.85;4.18;;;16.50;76.80;;;;;;5007256;28;20029;-82
2022/07/16 00:51:09;;;;;;;6.53;3.95;;;16.50;77.00;;;;;;4990651;28;20030;-84
2022/07/16 00:53:36;;;;;;;7.95;2.80;;;16.50;77.20;;;;;;4972369;28;20023;-84
2022/07/16 00:56:03;;;;;;;5.30;2.87;;;16.50;77.40;;;;;;4977796;28;20019;-84
2022/07/16 00:58:29;;;;;;;9.43;3.15;;;16.50;77.50;;;;;;4972166;28;20019;-83
2022/07/16 01:00:55;;;;;;;7.68;2.83;;;16.40;77.70;;;;;;4972611;28;20042;-85
2022/07/16 01:03:20;;;;;;;7.47;3.45;;;16.40;77.90;;;;;;4977861;28;20090;-84
2022/07/16 01:05:46;;;;;;;9.30;3.28;;;16.40;78.30;;;;;;4980713;28;20059;-84
2022/07/16 01:08:12;;;;;;;10.82;3.65;;;16.40;78.60;;;;;;4988942;28;20089;-85
2022/07/16 01:10:40;;;;;;;7.88;3.22;;;16.30;78.90;;;;;;4986593;28;20109;-85
2022/07/16 01:13:07;;;;;;;7.93;3.30;;;16.30;79.30;;;;;;4972146;28;20387;-85
2022/07/16 01:15:33;;;;;;;10.60;3.50;;;16.30;79.60;;;;;;4980814;28;20046;-84
2022/07/16 01:17:59;;;;;;;13.88;3.95;;;16.30;79.80;;;;;;4964799;28;20066;-85
2022/07/16 01:20:25;;;;;;;5.60;3.63;;;16.30;80.20;;;;;;4972771;28;20471;-86
2022/07/16 01:22:54;;;;;;;8.32;3.40;;;16.30;80.30;;;;;;4990894;28;20026;-86
2022/07/16 01:25:20;;;;;;;6.68;3.40;;;16.30;80.70;;;;;;4970838;28;20163;-86
2022/07/16 01:27:46;;;;;;;7.30;2.85;;;16.30;80.70;;;;;;4976640;28;20030;-84
2022/07/16 01:30:12;;;;;;;5.60;3.13;;;16.30;80.80;;;;;;4978531;28;20078;-85
2022/07/16 01:32:38;;;;;;;8.73;3.75;;;16.20;80.90;;;;;;4966296;28;20014;-84
2022/07/16 01:35:05;;;;;;;9.80;3.53;;;16.20;80.90;;;;;;4975074;28;20031;-84
2022/07/16 01:37:31;;;;;;;8.90;3.55;;;16.20;81.00;;;;;;5004082;28;20030;-84
2022/07/16 01:39:57;;;;;;;9.30;3.30;;;16.20;81.10;;;;;;4985355;28;20030;-84
2022/07/16 01:42:23;;;;;;;9.13;3.03;;;16.20;81.30;;;;;;4980052;28;20181;-85
2022/07/16 01:44:49;;;;;;;8.70;3.10;;;16.20;80.90;;;;;;4999480;28;20030;-84
2022/07/16 01:47:15;;;;;;;7.35;3.55;;;16.20;81.10;;;;;;4983941;28;20054;-84
2022/07/16 01:49:40;;;;;;;8.18;3.28;;;16.30;81.50;;;;;;4985897;28;20093;-86
2022/07/16 01:52:07;;;;;;;5.97;3.08;;;16.30;81.70;;;;;;4969136;28;20051;-86
2022/07/16 01:54:34;;;;;;;4.95;2.90;;;16.30;81.60;;;;;;4974098;28;20026;-86
2022/07/16 01:56:59;;;;;;;11.43;3.63;;;16.40;81.60;;;;;;4988880;28;20018;-84
2022/07/16 01:59:25;;;;;;;6.65;3.30;;;16.40;81.20;;;;;;4988431;28;20022;-85
2022/07/16 02:01:51;;;;;;;9.05;3.58;;;16.40;81.10;;;;;;4980322;28;20062;-82
2022/07/16 02:04:17;;;;;;;7.13;3.15;;;16.40;81.20;;;;;;4983532;28;20054;-82
2022/07/16 02:06:43;;;;;;;5.75;2.72;;;16.50;81.30;;;;;;4982125;28;20031;-84
2022/07/16 02:09:09;;;;;;;7.93;3.70;;;16.50;81.20;;;;;;4983529;28;20526;-84
2022/07/16 02:11:34;;;;;;;10.02;3.63;;;16.60;80.90;;;;;;4962364;28;20046;-85
2022/07/16 02:14:00;;;;;;;9.98;3.35;;;16.60;80.90;;;;;;4993052;28;20037;-84
2022/07/16 02:16:26;;;;;;;10.68;3.15;;;16.60;80.70;;;;;;4962449;28;20023;-85
2022/07/16 02:18:52;;;;;;;9.68;3.25;;;16.60;81.00;;;;;;4993062;28;20019;-85
2022/07/16 02:21:18;;;;;;;5.50;2.95;;;16.60;80.90;;;;;;4978850;28;20038;-83
2022/07/16 02:23:43;;;;;;;6.32;2.85;;;16.60;80.60;;;;;;4974861;28;20173;-85
2022/07/16 02:26:09;;;;;;;7.82;2.78;;;16.60;80.60;;;;;;4963260;28;20031;-85
2022/07/16 02:28:35;;;;;;;8.02;3.22;;;16.60;80.60;;;;;;4985977;28;20023;-84
2022/07/16 02:31:01;;;;;;;3.75;2.35;;;16.70;80.70;;;;;;4977290;28;20384;-84
2022/07/16 02:33:27;;;;;;;3.60;2.20;;;16.60;80.40;;;;;;4972487;28;20114;-85
2022/07/16 02:35:52;;;;;;;7.18;2.95;;;16.60;80.80;;;;;;4982653;28;20038;-86
2022/07/16 02:38:18;;;;;;;7.70;2.78;;;16.60;81.00;;;;;;4975023;28;20653;-85
2022/07/16 02:40:44;;;;;;;5.95;2.95;;;16.60;80.90;;;;;;4989646;28;20100;-85
2022/07/16 02:43:11;;;;;;;6.32;2.42;;;16.60;80.60;;;;;;4984693;28;20044;-85
2022/07/16 02:45:39;;;;;;;10.55;3.05;;;16.60;80.70;;;;;;4984239;28;20117;-86
2022/07/16 02:48:05;;;;;;;7.05;2.80;;;16.60;80.70;;;;;;4983597;28;20090;-85
2022/07/16 02:50:32;;;;;;;4.85;2.40;;;16.70;80.90;;;;;;4975780;28;20026;-85
2022/07/16 02:52:57;;;;;;;10.63;3.13;;;16.70;80.40;;;;;;4975617;28;20054;-85
2022/07/16 02:55:23;;;;;;;6.85;2.22;;;16.70;80.80;;;;;;4975829;28;20062;-85
2022/07/16 02:57:49;;;;;;;10.30;2.55;;;16.80;80.60;;;;;;4982261;28;20041;-85
2022/07/16 03:00:16;;;;;;;6.30;2.58;;;16.90;80.60;;;;;;4983457;28;20026;-85
2022/07/16 03:02:43;;;;;;;4.65;2.60;;;17.10;80.20;;;;;;4971039;28;20037;-85
2022/07/16 03:05:10;;;;;;;4.88;2.15;;;17.20;79.50;;;;;;5002672;28;20125;-84
2022/07/16 03:07:37;;;;;;;3.53;2.03;;;17.20;78.80;;;;;;5000624;28;20026;-84
2022/07/16 03:10:04;;;;;;;8.30;2.87;;;17.30;79.00;;;;;;4969318;28;20058;-85
2022/07/16 03:12:30;;;;;;;5.32;2.30;;;17.40;77.90;;;;;;4981739;28;20273;-85
2022/07/16 03:14:57;;;;;;;3.35;2.30;;;17.40;77.90;;;;;;4991099;28;20114;-87
2022/07/16 03:17:23;;;;;;;7.28;2.45;;;17.40;77.90;;;;;;4974783;28;20033;-84
2022/07/16 03:19:49;;;;;;;4.20;1.77;;;17.40;77.80;;;;;;4971441;28;20034;-83
2022/07/16 03:22:16;;;;;;;6.45;2.33;;;17.50;77.40;;;;;;4984279;28;20480;-84
2022/07/16 03:24:42;;;;;;;10.30;2.58;;;17.60;77.00;;;;;;4975357;28;20015;-84
2022/07/16 03:27:08;;;;;;;7.95;1.92;;;17.60;76.90;;;;;;4983661;28;20042;-85
2022/07/16 03:29:33;;;;;;;3.92;2.30;;;17.70;76.80;;;;;;4974871;28;20150;-86
2022/07/16 03:31:59;;;;;;;4.70;2.45;;;17.80;76.40;;;;;;4988013;28;20030;-86
2022/07/16 03:34:25;;;;;;;5.70;2.42;;;17.80;75.90;;;;;;4980541;28;20487;-84
2022/07/16 03:36:51;;;;;;;6.88;1.85;;;17.90;75.70;;;;;;5002497;28;20023;-83
2022/07/16 03:39:17;;;;;;;3.38;2.00;;;17.90;75.70;;;;;;5004660;28;20033;-85
2022/07/16 03:41:43;;;;;;;5.00;2.05;;;18.00;74.90;;;;;;4994966;28;20035;-85
2022/07/16 03:44:11;;;;;;;3.05;1.67;;;18.00;74.60;;;;;;4986403;28;20033;-84
2022/07/16 03:46:38;;;;;;;3.97;1.80;;;18.00;74.50;;;;;;4977113;28;20026;-84
2022/07/16 03:49:05;;;;;;;6.10;1.70;;;18.00;74.30;;;;;;4974384;28;20102;-84
2022/07/16 03:51:31;;;;;;;4.47;1.90;;;17.90;74.70;;;;;;4978423;28;20030;-84
2022/07/16 03:53:57;;;;;;;7.55;2.60;;;17.90;74.90;;;;;;4981193;28;20025;-84
2022/07/16 03:56:24;;;;;;;7.18;2.42;;;18.00;74.60;;;;;;4987827;28;20023;-83
2022/07/16 03:58:50;;;;;;;5.60;2.25;;;18.10;75.00;;;;;;4966468;28;20031;-83
2022/07/16 04:01:16;;;;;;;4.65;2.38;;;18.20;74.70;;;;;;4975126;28;20404;-85
2022/07/16 04:03:43;;;;;;;3.28;1.88;;;18.30;74.10;;;;;;4964844;28;20023;-84
2022/07/16 04:06:09;;;;;;;3.95;1.98;;;18.30;73.80;;;;;;4977201;28;20832;-84
2022/07/16 04:08:34;;;;;;;6.75;1.73;;;18.40;73.80;;;;;;4992933;28;20241;-84
2022/07/16 04:11:01;;;;;;;3.42;1.30;;;18.40;74.20;;;;;;4971800;28;20472;-83
2022/07/16 04:13:27;;;;;;;3.25;1.83;;;18.40;73.70;;;;;;4948554;28;20019;-84
2022/07/16 04:15:53;;;;;;;2.63;1.40;;;18.50;73.80;;;;;;4962261;28;20046;-84
2022/07/16 04:18:20;;;;;;;4.20;1.63;;;18.50;73.70;;;;;;4969414;28;20074;-87
2022/07/16 04:20:46;;;;;;;6.72;1.85;;;18.60;73.70;;;;;;4964638;28;20101;-86
2022/07/16 04:23:12;;;;;;;5.40;1.80;;;18.60;73.70;;;;;;4969341;28;20024;-84
2022/07/16 04:25:38;;;;;;;3.83;1.50;;;18.70;73.80;;;;;;4971379;28;20395;-85
2022/07/16 04:28:05;;;;;;;3.10;1.40;;;18.80;73.50;;;;;;4966931;28;20105;-84
2022/07/16 04:30:31;;;;;;;3.58;1.90;;;18.90;73.10;;;;;;4966124;28;20115;-85
2022/07/16 04:32:57;;;;;;;6.85;2.10;;;18.90;73.40;;;;;;4966926;28;20027;-84
2022/07/16 04:35:23;;;;;;;5.07;1.60;;;18.90;73.30;;;;;;4971172;28;20031;-84
2022/07/16 04:37:48;;;;;;;2.78;1.48;;;19.10;72.80;;;;;;4968069;28;20018;-85
2022/07/16 04:40:15;;;;;;;4.18;2.35;;;19.20;72.30;;;;;;4970217;28;20083;-84
2022/07/16 04:42:43;;;;;;;1.88;1.10;;;19.20;72.80;;;;;;4966799;28;20050;-83
2022/07/16 04:45:10;;;;;;;4.25;1.10;;;19.20;72.20;;;;;;4962873;28;20106;-86
2022/07/16 04:47:37;;;;;;;2.35;1.60;;;19.20;71.90;;;;;;4942154;28;20428;-85
2022/07/16 04:50:03;;;;;;;5.50;1.40;;;19.20;72.30;;;;;;4961692;28;20063;-84
2022/07/16 04:52:30;;;;;;;2.75;1.40;;;19.30;72.10;;;;;;4958430;28;20025;-85
2022/07/16 04:54:57;;;;;;;3.00;1.85;;;19.30;71.60;;;;;;4964744;28;20043;-87
2022/07/16 04:57:24;;;;;;;3.80;1.60;;;19.40;71.40;;;;;;4961820;28;20029;-87
2022/07/16 04:59:50;;;;;;;3.95;1.38;;;19.40;71.50;;;;;;4964310;28;20265;-86
2022/07/16 05:05:09;;;;;;;2.25;1.48;;;19.50;71.80;;;;;;4949744;28;20036;-85
2022/07/16 05:07:35;;;;;;;5.47;1.60;;;19.60;71.50;;;;;;4971023;28;20154;-85
2022/07/16 05:10:02;;;;;;;4.53;1.77;;;19.60;71.40;;;;;;4976566;28;20098;-85
2022/07/16 05:12:28;;;;;;;6.33;1.57;;;20.10;71.40;;;;;;4995552;28;20276;-86
2022/07/16 05:14:53;;;;;;;3.83;1.35;;;21.00;68.90;;;;;;4994750;28;20077;-87
2022/07/16 05:17:19;;;;;;;2.33;1.10;;;;;;;;;;4995417;28;20022;-85
2022/07/16 05:19:45;;;;;;;2.15;1.23;;;22.80;62.70;;;;;;4980670;28;20039;-84
2022/07/16 05:22:11;;;;;;;2.58;1.63;;;25.00;57.30;;;;;;4998006;28;20041;-86
2022/07/16 05:24:37;;;;;;;6.15;1.48;;;25.00;56.90;;;;;;4977771;28;20022;-86
2022/07/16 05:27:03;;;;;;;5.13;1.52;;;25.80;54.60;;;;;;4995846;28;20058;-85
2022/07/16 05:29:29;;;;;;;3.88;1.75;;;26.30;52.90;;;;;;4998845;28;20023;-85
2022/07/16 05:31:55;;;;;;;2.38;1.58;;;27.00;51.90;;;;;;4974674;28;20038;-85
2022/07/16 05:34:21;;;;;;;2.95;1.08;;;27.80;50.00;;;;;;4978519;28;20022;-86
2022/07/16 05:36:47;;;;;;;5.97;1.42;;;28.60;48.30;;;;;;4975866;28;20384;-86
2022/07/16 05:39:13;;;;;;;2.63;1.10;;;29.00;46.90;;;;;;4987080;28;20066;-86
2022/07/16 05:41:38;;;;;;;3.55;1.38;;;29.30;45.60;;;;;;5009215;28;20058;-86
2022/07/16 05:44:04;;;;;;;2.00;0.98;;;29.50;45.30;;;;;;5007194;28;20022;-87
2022/07/16 05:46:30;;;;;;;2.63;1.17;;;;;;;;;;4990020;28;20030;-86
2022/07/16 05:48:56;;;;;;;3.70;1.30;;;30.10;43.60;;;;;;4989857;28;20033;-85
2022/07/16 05:51:22;;;;;;;3.05;1.05;;;29.90;44.00;;;;;;4981306;28;20387;-84
2022/07/16 05:53:48;;;;;;;2.70;1.02;;;30.20;43.80;;;;;;4981968;28;20047;-85
2022/07/16 05:56:14;;;;;;;2.35;1.30;;;31.00;43.70;;;;;;4995336;28;20029;-84
2022/07/16 05:58:39;;;;;;;4.73;1.20;;;31.90;42.50;;;;;;4987887;28;20085;-85
2022/07/16 06:01:05;;;;;;;5.80;3.20;;;32.10;41.30;;;;;;4983288;28;20142;-85
2022/07/16 06:03:31;;;;;;;4.13;1.37;;;32.40;41.50;;;;;;4977632;28;20095;-85
2022/07/16 06:05:57;;;;;;;3.73;2.10;;;32.60;40.50;;;;;;4980188;28;20106;-84
2022/07/16 06:08:22;;;;;;;6.20;2.00;;;32.80;39.90;;;;;;4982140;28;20014;-85
2022/07/16 06:10:48;;;;;;;7.83;2.03;;;33.70;39.50;;;;;;4982975;28;20113;-86
2022/07/16 06:13:14;;;;;;;3.90;1.30;;;34.50;37.90;;;;;;4974284;28;20022;-87
2022/07/16 06:15:40;;;;;;;2.17;1.00;;;34.80;36.60;;;;;;4999190;28;20046;-82
2022/07/16 06:18:06;;;;;;;3.93;1.30;;;34.80;36.00;;;;;;4994420;28;20027;-84
2022/07/16 06:20:32;;;;;;;5.20;1.43;;;34.60;35.70;;;;;;4967189;28;20114;-84
2022/07/16 06:22:58;;;;;;;3.60;1.47;;;34.30;36.40;;;;;;4997315;28;20031;-85
2022/07/16 06:25:26;;;;;;;4.33;1.63;;;33.50;36.40;;;;;;5004357;28;20026;-84
2022/07/16 06:27:52;;;;;;;4.03;1.98;;;32.90;38.20;;;;;;4990214;28;20058;-87
2022/07/16 06:30:18;;;;;;;4.17;1.70;;;33.60;38.00;;;;;;4990305;28;20014;-85
2022/07/16 06:32:44;;;;;;;4.20;1.33;;;34.20;36.70;;;;;;4972888;28;20027;-85
2022/07/16 06:35:11;;;;;;;2.63;1.40;;;34.90;36.00;;;;;;4969153;28;20041;-86
2022/07/16 06:37:37;;;;;;;6.60;1.63;;;35.60;35.30;;;;;;4991748;28;20090;-84
2022/07/16 06:40:04;;;;;;;5.35;1.65;;;35.60;35.10;;;;;;4969571;28;20027;-87
2022/07/16 06:42:30;;;;;;;3.00;1.27;;;36.20;34.70;;;;;;4973220;28;20038;-84
2022/07/16 06:44:55;;;;;;;3.50;1.50;;;35.80;33.70;;;;;;4977198;28;20519;-85
2022/07/16 06:47:22;;;;;;;2.30;1.20;;;35.80;34.00;;;;;;4980892;28;20284;-85
2022/07/16 06:49:48;;;;;;;4.93;1.92;;;;;;;;;;4980800;28;20019;-84
2022/07/16 06:52:14;;;;;;;2.45;1.23;;;37.10;32.80;;;;;;4984069;28;20018;-85
2022/07/16 06:54:40;;;;;;;1.88;0.93;;;38.10;32.80;;;;;;4964634;28;20027;-84
2022/07/16 06:57:05;;;;;;;3.63;1.07;;;36.70;32.60;;;;;;4981169;28;20031;-86
2022/07/16 06:59:31;;;;;;;5.77;1.67;;;35.80;33.90;;;;;;4962544;28;20263;-83
2022/07/16 07:01:57;;;;;;;3.60;1.47;;;36.30;33.60;;;;;;4971214;28;20424;-85
2022/07/16 07:04:23;;;;;;;4.90;1.60;;;37.30;33.20;;;;;;4964192;28;20267;-85
2022/07/16 07:06:49;;;;;;;4.43;1.30;;;38.00;32.50;;;;;;4974899;28;20035;-84
2022/07/16 07:09:15;;;;;;;4.97;1.40;;;37.70;32.70;;;;;;4975348;28;20443;-85
2022/07/16 07:11:42;;;;;;;4.07;1.05;;;37.90;31.60;;;;;;4975799;28;20121;-84
2022/07/16 07:14:09;;;;;;;3.75;1.10;;;38.40;30.60;;;;;;4957418;28;20326;-84
2022/07/16 07:16:34;;;;;;;3.22;1.50;;;37.50;30.90;;;;;;4973493;28;20023;-85
2022/07/16 07:19:00;;;;;;;2.55;1.20;;;37.50;31.50;;;;;;4972833;28;20049;-86
2022/07/16 07:21:26;;;;;;;3.30;1.00;;;37.80;31.20;;;;;;4966003;28;20038;-84
2022/07/16 07:23:52;;;;;;;2.22;1.00;;;38.00;31.00;;;;;;4979639;28;20264;-83
2022/07/16 07:26:18;;;;;;;;;;;38.60;30.70;;;;;;4980712;28;20138;-84
2022/07/16 07:28:44;;;;;;;3.60;1.27;;;39.40;30.90;;;;;;4983963;28;19949;-84
2022/07/16 07:31:10;;;;;;;2.83;1.02;;;38.90;30.90;;;;;;4978890;28;20023;-84
2022/07/16 07:33:38;;;;;;;2.55;1.10;;;38.90;30.70;;;;;;4977396;28;20034;-84
2022/07/16 07:36:05;;;;;;;4.28;1.25;;;38.90;30.80;;;;;;4957621;28;20041;-86
2022/07/16 07:38:34;;;;;;;2.78;1.08;;;;;;;;;;4968597;28;20022;-86
2022/07/16 07:41:01;;;;;;;3.55;1.30;;;39.30;29.90;;;;;;4979859;28;20034;-84
2022/07/16 07:43:27;;;;;;;6.88;2.50;;;38.50;30.00;;;;;;4984654;28;20025;-84
2022/07/16 07:45:53;;;;;;;2.58;1.35;;;37.60;31.10;;;;;;4983990;28;20034;-87
2022/07/16 07:48:22;;;;;;;2.47;1.30;;;37.80;31.20;;;;;;4991007;28;20949;-86
2022/07/16 07:50:48;;;;;;;3.45;1.33;;;38.40;31.00;;;;;;4989929;28;20034;-86
2022/07/16 07:53:14;;;;;;;4.25;1.00;;;38.90;30.40;;;;;;4985190;28;20439;-86
2022/07/16 07:55:41;;;;;;;;;;;40.00;29.80;;;;;;4986216;28;20034;-87
2022/07/16 07:58:08;;;;;;;4.45;1.15;;;39.40;30.10;;;;;;4983147;28;19960;-85
2022/07/16 08:00:33;;;;;;;6.00;1.67;;;39.50;29.60;;;;;;4975009;28;20038;-85
2022/07/16 08:02:59;;;;;;;8.93;1.80;;;39.10;29.90;;;;;;4974129;28;20034;-84
2022/07/16 08:05:25;;;;;;;5.63;1.98;;;36.70;30.30;;;;;;4961477;28;20461;-84
2022/07/16 08:07:51;;;;;;;2.17;1.35;;;36.10;30.80;;;;;;4984529;28;20078;-83
2022/07/16 08:10:18;;;;;;;3.85;1.45;;;34.80;31.60;;;;;;4973049;28;20042;-84
2022/07/16 08:12:44;;;;;;;5.68;1.50;;;34.30;33.30;;;;;;4986751;28;20035;-84
2022/07/16 08:15:10;;;;;;;2.83;1.25;;;33.50;33.80;;;;;;4986110;28;20030;-85
2022/07/16 08:17:36;;;;;;;3.80;1.30;;;33.70;34.20;;;;;;4976070;28;20018;-84
2022/07/16 08:20:04;;;;;;;2.00;0.98;;;35.20;33.40;;;;;;4977790;28;20098;-85
2022/07/16 08:22:30;;;;;;;3.22;2.53;;;36.10;32.40;;;;;;4975411;28;20030;-84
2022/07/16 08:27:40;;;;;;;3.05;1.42;;;39.10;30.60;;;;;;4974745;28;20146;-85
2022/07/16 08:30:09;;;;;;;3.60;1.25;;;39.50;30.10;;;;;;4973994;28;20539;-84
2022/07/16 08:32:36;;;;;;;4.47;1.73;;;39.60;29.50;;;;;;4975401;28;20604;-83
2022/07/16 08:35:03;;;;;;;3.72;1.58;;;38.40;30.00;;;;;;4975325;28;20158;-84
2022/07/16 08:37:35;;;;;;;6.50;1.33;;;37.10;31.10;;;;;;4977350;28;20023;-83
2022/07/16 08:40:07;;;;;;;4.18;2.10;;;36.10;30.90;;;;;;4984034;28;20039;-87
2022/07/16 08:42:35;;;;;;;2.67;1.42;;;35.90;32.10;;;;;;4961268;28;20077;-85
2022/07/16 08:45:03;;;;;;;2.25;0.90;;;35.00;32.20;;;;;;4968534;28;20114;-87
2022/07/16 08:47:32;;;;;;;4.20;1.65;;;34.60;32.40;;;;;;4973535;28;20025;-84
2022/07/16 08:49:59;;;;;;;2.83;1.30;;;35.20;32.90;;;;;;4955888;28;20034;-84
2022/07/16 08:52:27;;;;;;;2.45;1.23;;;36.60;31.20;;;;;;4973721;28;20063;-87
2022/07/16 08:54:54;;;;;;;3.85;1.45;;;37.50;30.70;;;;;;4958737;28;20027;-83
2022/07/16 08:57:21;;;;;;;8.00;2.60;;;38.40;30.40;;;;;;4976869;28;20045;-82
2022/07/16 08:59:47;;;;;;;3.45;1.52;;;;;;;;;;4950406;28;20418;-83
2022/07/16 09:02:13;;;;;;;8.90;1.70;;;39.60;29.40;;;;;;4973216;28;20088;-82
2022/07/16 09:04:40;;;;;;;3.70;1.15;;;39.40;29.30;;;;;;4960395;28;20035;-84
2022/07/16 09:07:05;;;;;;;3.47;1.23;;;37.00;29.70;;;;;;4973052;28;20053;-85
2022/07/16 09:09:31;;;;;;;5.68;1.75;;;35.60;31.90;;;;;;4978670;28;20071;-85
2022/07/16 09:11:57;;;;;;;4.47;1.40;;;36.10;31.70;;;;;;4991970;28;20504;-85
2022/07/16 09:14:23;;;;;;;5.82;1.38;;;37.70;30.90;;;;;;4989706;28;20054;-87
2022/07/16 09:16:50;;;;;;;;;;;39.20;30.20;;;;;;5009872;28;20053;-86
2022/07/16 09:19:22;;;;;;;2.67;1.30;;;40.00;30.10;;;;;;4993879;28;20287;-81
2022/07/16 09:22:17;;;;;;;8.90;1.27;;;38.90;29.60;;;;;;4976673;28;20039;-82
2022/07/16 09:24:47;;;;;;;3.80;1.83;;;39.10;29.80;;;;;;4946097;28;20034;-83
2022/07/16 09:27:14;;;;;;;3.40;1.00;;;;;;;;;;4991345;28;20503;-82
2022/07/16 09:29:50;;;;;;;5.10;1.50;;;;;;;;;;4971889;28;20049;-85
2022/07/16 09:32:29;;;;;;;3.78;1.10;;;;;;;;;;4970089;28;20014;-86
2022/07/16 09:35:06;;;;;;;3.97;1.30;;;;;;;;;;4985130;28;20158;-87
2022/07/16 09:37:52;;;;;;;1.92;0.90;;;39.70;28.90;;;;;;4962439;28;20370;-86
2022/07/16 09:40:38;;;;;;;5.10;1.42;;;37.50;28.80;;;;;;4954951;28;20026;-87
2022/07/16 09:43:24;;;;;;;1.67;0.95;;;36.20;29.80;;;;;;4968475;28;20102;-85
2022/07/16 09:45:57;;;;;;;4.30;1.00;;;;;;;;;;4962425;28;20023;-84
2022/07/16 09:48:25;;;;;;;3.40;1.38;;;33.40;31.00;;;;;;4978529;28;20491;-85
2022/07/16 09:50:52;;;;;;;5.43;1.33;;;33.10;33.40;;;;;;4965017;28;20553;-84
2022/07/16 09:53:23;;;;;;;2.03;1.10;;;33.90;32.40;;;;;;4998490;28;20038;-86
2022/07/16 09:56:07;;;;;;;2.35;1.00;;;34.60;31.90;;;;;;5008990;28;20022;-85
2022/07/16 09:58:33;;;;;;;2.08;1.02;;;35.40;31.90;;;;;;4998251;28;20030;-84
2022/07/16 10:01:00;;;;;;;2.85;0.98;;;36.10;30.90;;;;;;4998742;28;20046;-85
2022/07/16 10:03:28;;;;;;;1.80;0.85;;;35.20;30.90;;;;;;4959696;28;20449;-85
2022/07/16 10:05:54;;;;;;;2.90;0.95;;;34.30;32.20;;;;;;4964660;28;20384;-83
2022/07/16 10:08:21;;;;;;;1.90;1.17;;;33.00;33.00;;;;;;4966873;28;20015;-82
2022/07/16 10:10:47;;;;;;;;;;;31.60;35.30;;;;;;4959749;28;20043;-82
2022/07/16 10:13:14;;;;;;;3.08;1.17;;;30.40;34.50;;;;;;4966886;28;19910;-86
2022/07/16 10:15:41;;;;;;;2.05;1.00;;;29.50;36.70;;;;;;4948415;28;20495;-86
2022/07/16 10:18:26;;;;;;;3.78;1.90;;;29.10;37.40;;;;;;4979197;28;20082;-85
2022/07/16 10:21:02;;;;;;;5.38;1.75;;;28.20;37.60;;;;;;4966358;28;20035;-87
2022/07/16 10:23:30;;;;;;;2.95;1.63;;;27.80;39.90;;;;;;4980443;28;20023;-86
2022/07/16 10:26:04;;;;;;;3.03;1.40;;;27.50;41.00;;;;;;4979750;28;20050;-84
2022/07/16 10:28:43;;;;;;;2.22;1.00;;;27.10;40.70;;;;;;4983253;28;20050;-83
2022/07/16 10:31:40;;;;;;;2.28;1.08;;;26.60;41.50;;;;;;4981581;28;20026;-84
2022/07/16 10:34:16;;;;;;;2.88;1.20;;;26.30;42.40;;;;;;4977569;28;20089;-83
2022/07/16 10:36:47;;;;;;;2.75;1.50;;;25.90;42.40;;;;;;4965871;28;20043;-87
2022/07/16 10:39:16;;;;;;;2.65;1.25;;;25.40;43.30;;;;;;4984065;28;20030;-87
2022/07/16 10:41:55;;;;;;;2.90;1.13;;;25.40;43.60;;;;;;4966876;28;20030;-87
2022/07/16 10:44:24;;;;;;;5.50;1.20;;;25.70;43.10;;;;;;4984953;28;20019;-84
2022/07/16 10:46:55;;;;;;;2.88;1.15;;;25.90;43.20;;;;;;4969850;28;20041;-86
2022/07/16 10:49:23;;;;;;;1.75;1.25;;;26.00;42.10;;;;;;4974785;28;20018;-88
2022/07/16 10:52:05;;;;;;;2.65;1.55;;;26.10;42.60;;;;;;4975345;28;20030;-86
2022/07/16 10:54:37;;;;;;;4.18;1.30;;;26.20;43.00;;;;;;4961039;28;20082;-83
2022/07/16 10:57:05;;;;;;;1.23;0.95;;;26.20;42.40;;;;;;4970578;28;20380;-86
2022/07/16 10:59:39;;;;;;;3.83;1.17;;;26.00;42.60;;;;;;4977692;28;20019;-85
2022/07/16 11:02:10;;;;;;;3.03;0.98;;;25.70;42.10;;;;;;4978130;28;20031;-86
2022/07/16 11:04:42;;;;;;;3.53;1.50;;;25.30;43.20;;;;;;4978874;28;20014;-85
2022/07/16 11:07:17;;;;;;;5.50;1.00;;;25.30;44.40;;;;;;4975557;28;20019;-87
2022/07/16 11:09:51;;;;;;;2.38;1.40;;;25.40;44.40;;;;;;4980313;28;20026;-85
2022/07/16 11:12:21;;;;;;;2.35;1.30;;;25.50;44.90;;;;;;4968090;28;20050;-85
2022/07/16 11:14:49;;;;;;;2.42;0.98;;;25.60;44.00;;;;;;4977476;28;20026;-86
2022/07/16 11:17:17;;;;;;;3.35;1.20;;;25.50;43.90;;;;;;4979929;28;20022;-83
2022/07/16 11:19:48;;;;;;;3.90;1.85;;;25.30;43.40;;;;;;4984440;28;20038;-82
2022/07/16 11:22:17;;;;;;;7.70;1.55;;;25.20;44.20;;;;;;4973955;28;20035;-82
2022/07/16 11:25:00;;;;;;;6.57;1.35;;;25.10;44.70;;;;;;4979812;28;20054;-83
2022/07/16 11:27:44;;;;;;;2.25;1.25;;;25.20;44.40;;;;;;4987221;28;20027;-82
2022/07/16 11:30:12;;;;;;;2.13;1.13;;;25.20;44.20;;;;;;4985354;28;20022;-82
2022/07/16 11:32:45;;;;;;;4.97;1.20;;;25.10;43.40;;;;;;4985915;28;20054;-82
2022/07/16 11:35:12;;;;;;;4.88;1.67;;;25.10;44.90;;;;;;4984346;28;20026;-84
2022/07/16 11:37:55;;;;;;;5.23;2.33;;;25.40;44.70;;;;;;4986813;28;20142;-82
2022/07/16 11:40:35;;;;;;;13.45;1.92;;;25.70;44.50;;;;;;4985658;28;20025;-82
2022/07/16 11:43:01;;;;;;;4.03;1.65;;;25.90;45.10;;;;;;4984533;28;20033;-82
2022/07/16 11:45:29;;;;;;;4.50;1.42;;;25.80;45.50;;;;;;4976168;28;20022;-84
2022/07/16 11:48:15;;;;;;;7.07;2.05;;;25.70;45.00;;;;;;4956421;28;20041;-86
2022/07/16 11:50:42;;;;;;;6.15;2.38;;;25.60;45.10;;;;;;4979599;28;20381;-81
2022/07/16 11:53:08;;;;;;;2.78;1.35;;;25.60;45.10;;;;;;4967222;28;20085;-83
2022/07/16 11:55:34;;;;;;;2.15;1.55;;;25.60;44.80;;;;;;4986946;28;20030;-86
2022/07/16 11:58:00;;;;;;;2.13;1.40;;;25.70;43.60;;;;;;4992385;28;20545;-84
2022/07/16 12:00:26;;;;;;;3.95;2.20;;;25.60;43.10;;;;;;4990921;28;20027;-85
2022/07/16 12:02:57;;;;;;;5.25;2.10;;;25.70;42.70;;;;;;4967161;28;20045;-84
2022/07/16 12:05:29;;;;;;;2.22;1.52;;;25.70;42.40;;;;;;4984352;28;20029;-83
2022/07/16 12:07:55;;;;;;;4.57;1.60;;;25.60;42.50;;;;;;4992497;28;20031;-87
2022/07/16 12:10:24;;;;;;;6.43;1.58;;;25.50;43.40;;;;;;4980420;28;20034;-84
2022/07/16 12:13:03;;;;;;;2.53;1.20;;;25.50;44.10;;;;;;4994947;28;20014;-88
2022/07/16 12:15:30;;;;;;;4.32;2.10;;;25.20;44.70;;;;;;4992151;28;20023;-89
2022/07/16 12:18:09;;;;;;;4.25;2.95;;;25.10;45.30;;;;;;4972361;28;20041;-84
2022/07/16 12:20:35;;;;;;;4.63;1.73;;;25.20;46.10;;;;;;4953972;29;20027;-86
2022/07/16 12:23:10;;;;;;;3.97;1.20;;;25.20;45.60;;;;;;4961491;28;20464;-85
2022/07/16 12:25:43;;;;;;;2.35;1.30;;;25.20;45.50;;;;;;4984324;28;20038;-83
2022/07/16 12:28:16;;;;;;;4.32;1.80;;;25.20;44.80;;;;;;4972551;28;20448;-83
2022/07/16 12:30:55;;;;;;;6.07;1.95;;;25.20;45.60;;;;;;4965404;28;20033;-83
2022/07/16 12:33:24;;;;;;;6.05;1.55;;;25.30;44.70;;;;;;4980496;28;20023;-83
2022/07/16 12:35:56;;;;;;;4.53;1.48;;;25.10;44.80;;;;;;4988926;28;20026;-84
2022/07/16 12:38:37;;;;;;;1.73;1.38;;;24.80;45.30;;;;;;4984893;28;20058;-83
2022/07/16 12:41:06;;;;;;;2.92;1.20;;;24.70;46.30;;;;;;4980173;28;20365;-81
2022/07/16 12:43:32;;;;;;;1.90;1.35;;;24.70;47.00;;;;;;4964930;28;20078;-84
2022/07/16 12:46:03;;;;;;;4.88;2.67;;;24.90;46.70;;;;;;4972721;28;20026;-82
2022/07/16 12:48:30;;;;;;;7.03;2.10;;;25.10;45.40;;;;;;4976506;28;20352;-84
2022/07/16 12:50:56;;;;;;;3.15;1.50;;;25.30;45.60;;;;;;4971819;28;20495;-83
2022/07/16 12:53:22;;;;;;;2.92;1.42;;;25.60;44.00;;;;;;4976429;28;20023;-82
2022/07/16 12:58:47;;;;;;;3.75;1.70;;;25.50;44.70;;;;;;4977407;28;20411;-83
2022/07/16 13:01:15;;;;;;;4.80;1.70;;;25.50;43.90;;;;;;4956439;28;20126;-83
2022/07/16 13:03:40;;;;;;;3.15;1.05;;;25.40;43.30;;;;;;4973823;28;20122;-84